Time,TemperatureF,DewpointF,PressureIn,WindDirection,WindDirectionDegrees,WindSpeedMPH,WindSpeedGustMPH,Humidity,HourlyPrecipIn,Conditions,Clouds,dailyrainin,SoftwareType,DateUTC
2013-08-01 00:00:00,71.1,70.5,30.04,SSE,162,0.0,0.0,98,0.00,,,0.77,Wunderground v.1.15,2013-08-01 04:00:00,
2013-08-01 00:05:00,71.3,70.7,30.04,SSE,162,0.0,0.0,98,0.00,,,0.00,Wunderground v.1.15,2013-08-01 04:05:00,
2013-08-01 00:10:00,71.2,70.6,30.04,SSE,162,0.0,0.0,98,0.00,,,0.00,Wunderground v.1.15,2013-08-01 04:10:00,
2013-08-01 00:15:00,71.3,71.0,30.04,SSE,162,0.0,0.0,99,0.00,,,0.00,Wunderground v.1.15,2013-08-01 04:15:00,
2013-08-01 00:20:00,71.5,70.9,30.04,SSE,161,0.0,0.0,98,0.00,,,0.00,Wunderground v.1.15,2013-08-01 04:20:00,
2013-08-01 00:25:00,71.5,70.9,30.04,SSE,162,0.0,0.0,98,0.00,,,0.00,Wunderground v.1.15,2013-08-01 04:25:00,
2013-08-01 00:35:00,71.7,71.1,30.04,SSE,161,0.0,2.0,98,0.00,,,0.00,Wunderground v.1.15,2013-08-01 04:35:00,
2013-08-01 00:40:00,71.8,71.5,30.04,SSE,162,1.0,1.0,99,0.00,,,0.00,Wunderground v.1.15,2013-08-01 04:40:00,
2013-08-01 00:45:00,71.7,71.4,30.03,SSE,161,1.0,1.0,99,0.00,,,0.00,Wunderground v.1.15,2013-08-01 04:45:00,
2013-08-01 00:50:00,71.7,71.4,30.03,SSE,162,0.0,0.0,99,0.00,,,0.00,Wunderground v.1.15,2013-08-01 04:50:00,
2013-08-01 00:55:00,71.7,71.4,30.03,SSE,162,0.0,0.0,99,0.00,,,0.00,Wunderground v.1.15,2013-08-01 04:55:00,
2013-08-01 01:05:00,71.7,71.4,30.03,SSE,161,0.0,0.0,99,0.00,,,0.00,Wunderground v.1.15,2013-08-01 05:05:00,
2013-08-01 01:15:00,71.8,71.5,30.03,SSE,162,1.0,2.0,99,0.00,,,0.00,Wunderground v.1.15,2013-08-01 05:15:00,
2013-08-01 01:20:00,71.7,71.4,30.02,SSE,161,0.0,0.0,99,0.00,,,0.00,Wunderground v.1.15,2013-08-01 05:20:00,
2013-08-01 01:30:00,71.6,71.3,30.02,SSE,161,0.0,0.0,99,0.00,,,0.00,Wunderground v.1.15,2013-08-01 05:30:00,
2013-08-01 01:35:00,71.5,71.2,30.02,SSE,162,0.0,0.0,99,0.00,,,0.00,Wunderground v.1.15,2013-08-01 05:35:00,
2013-08-01 01:40:00,71.5,71.2,30.02,SSE,162,0.0,0.0,99,0.00,,,0.00,Wunderground v.1.15,2013-08-01 05:40:00,
2013-08-01 01:50:00,71.6,71.3,30.02,SSE,161,0.0,0.0,99,0.00,,,0.00,Wunderground v.1.15,2013-08-01 05:50:00,
2013-08-01 01:55:00,71.6,71.3,30.02,SSE,161,0.0,0.0,99,0.00,,,0.00,Wunderground v.1.15,2013-08-01 05:55:00,
2013-08-01 02:05:00,71.5,71.2,30.01,SSE,162,0.0,1.0,99,0.00,,,0.00,Wunderground v.1.15,2013-08-01 06:05:00,
2013-08-01 02:15:00,71.5,71.2,30.01,SSE,162,2.0,3.0,99,0.00,,,0.00,Wunderground v.1.15,2013-08-01 06:15:00,
2013-08-01 02:20:00,71.5,71.2,30.01,SSE,162,2.0,2.0,99,0.00,,,0.00,Wunderground v.1.15,2013-08-01 06:20:00,
2013-08-01 02:30:00,71.6,71.3,30.00,SSE,157,2.0,2.0,99,0.00,,,0.00,Wunderground v.1.15,2013-08-01 06:30:00,
2013-08-01 02:35:00,71.6,71.3,30.00,SSE,165,2.0,2.0,99,0.00,,,0.00,Wunderground v.1.15,2013-08-01 06:35:00,
2013-08-01 02:45:00,71.6,71.3,30.00,SSE,165,2.0,2.0,99,0.00,,,0.00,Wunderground v.1.15,2013-08-01 06:45:00,
2013-08-01 02:50:00,71.6,71.3,30.00,SSE,167,1.0,1.0,99,0.00,,,0.00,Wunderground v.1.15,2013-08-01 06:50:00,
2013-08-01 03:00:00,71.6,71.3,30.00,South,175,1.0,1.0,99,0.00,,,0.00,Wunderground v.1.15,2013-08-01 07:00:00,
2013-08-01 03:05:00,71.6,71.3,30.00,South,175,1.0,1.0,99,0.00,,,0.00,Wunderground v.1.15,2013-08-01 07:05:00,
2013-08-01 03:15:00,71.6,71.3,30.00,South,173,1.0,2.0,99,0.00,,,0.00,Wunderground v.1.15,2013-08-01 07:15:00,
2013-08-01 03:20:00,71.6,71.3,30.00,South,172,1.0,1.0,99,0.00,,,0.00,Wunderground v.1.15,2013-08-01 07:20:00,
2013-08-01 03:25:00,71.6,71.3,30.00,South,182,1.0,1.0,99,0.00,,,0.00,Wunderground v.1.15,2013-08-01 07:25:00,
2013-08-01 03:35:00,71.5,71.2,30.00,South,180,1.0,2.0,99,0.00,,,0.00,Wunderground v.1.15,2013-08-01 07:35:00,
2013-08-01 03:40:00,71.6,71.3,30.00,South,189,1.0,2.0,99,0.00,,,0.00,Wunderground v.1.15,2013-08-01 07:40:00,
2013-08-01 03:50:00,71.5,71.2,30.00,South,189,0.0,1.0,99,0.00,,,0.00,Wunderground v.1.15,2013-08-01 07:50:00,
2013-08-01 04:00:00,71.5,71.2,30.00,South,180,1.0,1.0,99,0.00,,,0.01,Wunderground v.1.15,2013-08-01 08:00:00,
2013-08-01 04:05:00,71.5,71.2,30.00,South,185,1.0,2.0,99,0.00,,,0.01,Wunderground v.1.15,2013-08-01 08:05:00,
2013-08-01 04:15:00,71.5,71.2,30.00,SW,217,1.0,2.0,99,0.00,,,0.01,Wunderground v.1.15,2013-08-01 08:15:00,
2013-08-01 04:20:00,71.5,71.2,30.00,South,187,1.0,1.0,99,0.00,,,0.01,Wunderground v.1.15,2013-08-01 08:20:00,
2013-08-01 04:30:00,71.6,71.3,30.00,SSW,197,1.0,1.0,99,0.00,,,0.01,Wunderground v.1.15,2013-08-01 08:30:00,
2013-08-01 04:40:00,71.6,71.3,30.00,West,267,1.0,2.0,99,0.00,,,0.01,Wunderground v.1.15,2013-08-01 08:40:00,
2013-08-01 05:00:00,71.7,71.4,30.00,SW,230,1.0,1.0,99,0.00,,,0.01,Wunderground v.1.15,2013-08-01 09:00:00,
2013-08-01 05:05:00,71.7,71.4,29.99,South,169,1.0,1.0,99,0.00,,,0.01,Wunderground v.1.15,2013-08-01 09:05:00,
2013-08-01 05:20:00,71.8,71.5,29.99,South,176,1.0,1.0,99,0.28,,,0.08,Wunderground v.1.15,2013-08-01 09:20:00,
2013-08-01 05:30:00,71.7,71.4,29.99,South,176,1.0,1.0,99,0.10,,,0.09,Wunderground v.1.15,2013-08-01 09:30:00,
2013-08-01 05:45:00,71.7,71.4,29.99,South,176,1.0,1.0,99,0.00,,,0.10,Wunderground v.1.15,2013-08-01 09:45:00,
2013-08-01 05:50:00,71.7,71.4,29.99,South,178,1.0,2.0,99,0.00,,,0.10,Wunderground v.1.15,2013-08-01 09:50:00,
2013-08-01 06:00:00,71.8,71.5,29.99,South,171,1.0,4.0,99,0.00,,,0.10,Wunderground v.1.15,2013-08-01 10:00:00,
2013-08-01 06:05:00,71.8,71.5,29.99,South,184,2.0,4.0,99,0.00,,,0.10,Wunderground v.1.15,2013-08-01 10:05:00,
2013-08-01 06:30:00,71.9,71.6,30.00,SSW,209,1.0,1.0,99,0.06,,,0.14,Wunderground v.1.15,2013-08-01 10:30:00,
2013-08-01 06:40:00,71.8,71.5,30.00,NW,307,0.0,2.0,99,0.00,,,0.14,Wunderground v.1.15,2013-08-01 10:40:00,
2013-08-01 06:55:00,71.7,71.4,30.00,North,351,1.0,1.0,99,0.00,,,0.14,Wunderground v.1.15,2013-08-01 10:55:00,
2013-08-01 07:00:00,71.6,71.3,30.00,WNW,290,1.0,1.0,99,0.00,,,0.14,Wunderground v.1.15,2013-08-01 11:00:00,
2013-08-01 07:15:00,71.6,71.3,30.00,SW,223,0.0,1.0,99,0.00,,,0.14,Wunderground v.1.15,2013-08-01 11:15:00,
2013-08-01 07:20:00,71.6,71.3,30.00,SW,224,0.0,0.0,99,0.00,,,0.14,Wunderground v.1.15,2013-08-01 11:20:00,
2013-08-01 07:30:00,71.6,71.3,30.01,West,267,1.0,1.0,99,0.00,,,0.14,Wunderground v.1.15,2013-08-01 11:30:00,
2013-08-01 07:40:00,71.7,71.4,30.01,South,184,0.0,0.0,99,0.00,,,0.14,Wunderground v.1.15,2013-08-01 11:40:00,
2013-08-01 07:50:00,71.9,71.6,30.01,SE,145,0.0,0.0,99,0.00,,,0.14,Wunderground v.1.15,2013-08-01 11:50:00,
2013-08-01 07:55:00,71.9,71.6,30.01,SSE,155,0.0,2.0,99,0.00,,,0.14,Wunderground v.1.15,2013-08-01 11:55:00,
2013-08-01 08:05:00,71.9,71.6,30.01,SSE,158,0.0,1.0,99,0.00,,,0.14,Wunderground v.1.15,2013-08-01 12:05:00,
2013-08-01 08:20:00,71.9,71.6,30.02,West,261,0.0,0.0,99,0.00,,,0.14,Wunderground v.1.15,2013-08-01 12:20:00,
2013-08-01 08:30:00,72.0,71.7,30.02,West,261,0.0,1.0,99,0.00,,,0.14,Wunderground v.1.15,2013-08-01 12:30:00,
2013-08-01 08:35:00,72.1,71.8,30.02,West,261,0.0,1.0,99,0.00,,,0.14,Wunderground v.1.15,2013-08-01 12:35:00,
2013-08-01 08:55:00,72.3,72.0,30.02,West,260,0.0,0.0,99,0.00,,,0.14,Wunderground v.1.15,2013-08-01 12:55:00,
2013-08-01 09:10:00,72.7,72.4,30.02,SW,217,1.0,2.0,99,0.00,,,0.14,Wunderground v.1.15,2013-08-01 13:10:00,
2013-08-01 09:20:00,73.0,72.7,30.01,SSE,163,2.0,2.0,99,0.00,,,0.14,Wunderground v.1.15,2013-08-01 13:20:00,
2013-08-01 09:30:00,74.0,73.7,30.01,South,172,2.0,2.0,99,0.00,,,0.14,Wunderground v.1.15,2013-08-01 13:30:00,
2013-08-01 09:35:00,74.2,73.9,30.01,South,178,2.0,3.0,99,0.00,,,0.14,Wunderground v.1.15,2013-08-01 13:35:00,
2013-08-01 09:55:00,74.9,74.3,30.01,West,277,1.0,2.0,98,0.00,,,0.14,Wunderground v.1.15,2013-08-01 13:55:00,
2013-08-01 10:00:00,75.3,74.7,30.01,SW,217,1.0,4.0,98,0.00,,,0.14,Wunderground v.1.15,2013-08-01 14:00:00,
2013-08-01 10:10:00,75.8,74.6,30.01,SW,218,1.0,1.0,96,0.00,,,0.14,Wunderground v.1.15,2013-08-01 14:10:00,
2013-08-01 10:20:00,76.2,74.3,30.01,West,269,1.0,2.0,94,0.00,,,0.14,Wunderground v.1.15,2013-08-01 14:20:00,
2013-08-01 10:30:00,76.5,74.3,30.01,West,269,2.0,2.0,93,0.00,,,0.14,Wunderground v.1.15,2013-08-01 14:30:00,
2013-08-01 10:40:00,77.0,74.2,30.01,WSW,250,2.0,3.0,91,0.00,,,0.14,Wunderground v.1.15,2013-08-01 14:40:00,
2013-08-01 10:55:00,77.1,74.3,30.01,SSW,207,2.0,4.0,91,0.00,,,0.14,Wunderground v.1.15,2013-08-01 14:55:00,
2013-08-01 11:10:00,78.0,74.5,30.00,SW,229,2.0,2.0,89,0.00,,,0.14,Wunderground v.1.15,2013-08-01 15:10:00,
2013-08-01 11:15:00,78.2,74.7,30.01,WNW,290,3.0,3.0,89,0.00,,,0.14,Wunderground v.1.15,2013-08-01 15:15:00,
2013-08-01 11:25:00,78.7,75.2,30.00,SSE,156,3.0,4.0,89,0.00,,,0.14,Wunderground v.1.15,2013-08-01 15:25:00,
2013-08-01 11:30:00,79.3,74.7,30.01,West,263,2.0,5.0,86,0.00,,,0.14,Wunderground v.1.15,2013-08-01 15:30:00,
2013-08-01 11:35:00,79.7,75.5,30.00,SW,215,3.0,5.0,87,0.00,,,0.14,Wunderground v.1.15,2013-08-01 15:35:00,
2013-08-01 11:45:00,80.5,74.9,30.00,SW,222,2.0,6.0,83,0.00,,,0.14,Wunderground v.1.15,2013-08-01 15:45:00,
2013-08-01 11:50:00,80.1,74.8,30.00,SSW,213,2.0,2.0,84,0.00,,,0.14,Wunderground v.1.15,2013-08-01 15:50:00,
2013-08-01 12:00:00,80.1,74.8,30.00,WNW,291,2.0,3.0,84,0.00,,,0.14,Wunderground v.1.15,2013-08-01 16:00:00,
2013-08-01 12:15:00,79.6,74.3,30.00,SSW,197,2.0,7.0,84,0.00,,,0.14,Wunderground v.1.15,2013-08-01 16:15:00,
2013-08-01 12:20:00,80.0,74.7,30.00,NNW,342,3.0,3.0,84,0.00,,,0.14,Wunderground v.1.15,2013-08-01 16:20:00,
2013-08-01 12:30:00,80.2,74.9,30.00,SW,226,2.0,2.0,84,0.00,,,0.14,Wunderground v.1.15,2013-08-01 16:30:00,
2013-08-01 12:40:00,80.3,75.4,29.99,WNW,298,2.0,2.0,85,0.00,,,0.14,Wunderground v.1.15,2013-08-01 16:40:00,
2013-08-01 12:45:00,80.9,74.9,29.99,SW,223,2.0,3.0,82,0.00,,,0.14,Wunderground v.1.15,2013-08-01 16:45:00,
2013-08-01 12:55:00,80.8,74.8,29.99,WNW,290,4.0,7.0,82,0.00,,,0.14,Wunderground v.1.15,2013-08-01 16:55:00,
2013-08-01 13:10:00,81.6,75.6,29.98,WNW,284,3.0,3.0,82,0.00,,,0.14,Wunderground v.1.15,2013-08-01 17:10:00,
2013-08-01 13:20:00,82.8,75.2,29.98,SW,226,2.0,2.0,78,0.00,,,0.14,Wunderground v.1.15,2013-08-01 17:20:00,
2013-08-01 13:30:00,82.8,75.6,29.98,NNW,335,3.0,3.0,79,0.00,,,0.14,Wunderground v.1.15,2013-08-01 17:30:00,
2013-08-01 13:40:00,83.4,74.2,29.97,SW,220,4.0,4.0,74,0.00,,,0.14,Wunderground v.1.15,2013-08-01 17:40:00,
2013-08-01 14:05:00,84.6,75.8,29.96,SE,145,2.0,4.0,75,0.00,,,0.14,Wunderground v.1.15,2013-08-01 18:05:00,
2013-08-01 14:15:00,85.3,76.1,29.96,West,273,2.0,5.0,74,0.00,,,0.14,Wunderground v.1.15,2013-08-01 18:15:00,
2013-08-01 14:30:00,84.9,75.7,29.95,WSW,246,2.0,3.0,74,0.00,,,0.14,Wunderground v.1.15,2013-08-01 18:30:00,
2013-08-01 14:35:00,85.1,75.5,29.95,NNW,338,2.0,3.0,73,0.00,,,0.14,Wunderground v.1.15,2013-08-01 18:35:00,
2013-08-01 14:45:00,85.7,75.6,29.95,SSW,204,2.0,3.0,72,0.00,,,0.14,Wunderground v.1.15,2013-08-01 18:45:00,
2013-08-01 14:55:00,86.0,75.9,29.94,SSE,164,3.0,4.0,72,0.00,,,0.14,Wunderground v.1.15,2013-08-01 18:55:00,
2013-08-01 15:05:00,85.5,74.2,29.94,SSE,148,3.0,6.0,69,0.00,,,0.14,Wunderground v.1.15,2013-08-01 19:05:00,
2013-08-01 15:10:00,85.2,74.3,29.94,SW,226,3.0,3.0,70,0.00,,,0.14,Wunderground v.1.15,2013-08-01 19:10:00,
2013-08-01 15:20:00,86.0,75.9,29.94,WSW,258,2.0,6.0,72,0.00,,,0.14,Wunderground v.1.15,2013-08-01 19:20:00,
2013-08-01 15:35:00,86.0,75.5,29.94,SW,221,2.0,6.0,71,0.00,,,0.14,Wunderground v.1.15,2013-08-01 19:35:00,
2013-08-01 15:40:00,86.2,75.3,29.94,West,261,3.0,3.0,70,0.00,,,0.14,Wunderground v.1.15,2013-08-01 19:40:00,
2013-08-01 16:05:00,85.9,75.8,29.93,WNW,286,2.0,4.0,72,0.00,,,0.14,Wunderground v.1.15,2013-08-01 20:05:00,
2013-08-01 16:15:00,86.4,75.9,29.93,SSW,203,1.0,4.0,71,0.00,,,0.14,Wunderground v.1.15,2013-08-01 20:15:00,
2013-08-01 16:25:00,87.1,76.5,29.93,SW,234,2.0,2.0,71,0.00,,,0.14,Wunderground v.1.15,2013-08-01 20:25:00,
2013-08-01 16:40:00,86.2,76.5,29.92,WNW,289,2.0,2.0,73,0.00,,,0.14,Wunderground v.1.15,2013-08-01 20:40:00,
2013-08-01 16:50:00,85.6,75.5,29.92,West,276,1.0,2.0,72,0.00,,,0.14,Wunderground v.1.15,2013-08-01 20:50:00,
2013-08-01 17:05:00,87.3,76.3,29.92,SSW,195,2.0,2.0,70,0.00,,,0.14,Wunderground v.1.15,2013-08-01 21:05:00,
2013-08-01 17:15:00,86.7,76.2,29.92,SW,224,2.0,3.0,71,0.00,,,0.14,Wunderground v.1.15,2013-08-01 21:15:00,
2013-08-01 17:20:00,85.7,76.0,29.93,WNW,302,2.0,2.0,73,0.00,,,0.14,Wunderground v.1.15,2013-08-01 21:20:00,
2013-08-01 17:30:00,84.9,77.7,29.92,WNW,302,0.0,0.0,79,0.00,,,0.14,Wunderground v.1.15,2013-08-01 21:30:00,
2013-08-01 17:40:00,85.3,77.7,29.92,WNW,300,1.0,1.0,78,0.00,,,0.14,Wunderground v.1.15,2013-08-01 21:40:00,
2013-08-01 17:50:00,85.6,77.2,29.92,SSW,198,1.0,1.0,76,0.00,,,0.14,Wunderground v.1.15,2013-08-01 21:50:00,
2013-08-01 17:55:00,86.0,77.1,29.91,SSW,202,0.0,1.0,75,0.00,,,0.14,Wunderground v.1.15,2013-08-01 21:55:00,
2013-08-01 18:05:00,87.1,77.0,29.92,South,184,0.0,0.0,72,0.00,,,0.14,Wunderground v.1.15,2013-08-01 22:05:00,
2013-08-01 18:10:00,87.0,77.3,29.92,South,184,1.0,1.0,73,0.00,,,0.14,Wunderground v.1.15,2013-08-01 22:10:00,
2013-08-01 18:20:00,87.1,77.0,29.91,SSE,150,1.0,1.0,72,0.00,,,0.14,Wunderground v.1.15,2013-08-01 22:20:00,
2013-08-01 18:30:00,87.5,77.8,29.92,WSW,253,0.0,0.0,73,0.00,,,0.14,Wunderground v.1.15,2013-08-01 22:30:00,
2013-08-01 18:35:00,87.6,78.3,29.92,WSW,253,0.0,0.0,74,0.00,,,0.14,Wunderground v.1.15,2013-08-01 22:35:00,
2013-08-01 18:40:00,87.8,77.6,29.92,WSW,253,0.0,0.0,72,0.00,,,0.14,Wunderground v.1.15,2013-08-01 22:40:00,
2013-08-01 18:45:00,87.7,79.2,29.93,WSW,253,0.0,0.0,76,0.00,,,0.14,Wunderground v.1.15,2013-08-01 22:45:00,
2013-08-01 19:00:00,86.2,78.1,29.92,WSW,253,0.0,0.0,77,0.00,,,0.14,Wunderground v.1.15,2013-08-01 23:00:00,
2013-08-01 19:05:00,85.8,78.1,29.92,East,90,0.0,0.0,78,0.00,,,0.14,Wunderground v.1.15,2013-08-01 23:05:00,
2013-08-01 19:15:00,85.4,78.9,29.92,South,171,0.0,0.0,81,0.00,,,0.14,Wunderground v.1.15,2013-08-01 23:15:00,
2013-08-01 19:20:00,85.4,79.6,29.92,South,171,0.0,0.0,83,0.00,,,0.14,Wunderground v.1.15,2013-08-01 23:20:00,
2013-08-01 19:35:00,84.5,78.8,29.93,South,171,0.0,0.0,83,0.00,,,0.14,Wunderground v.1.15,2013-08-01 23:35:00,
2013-08-01 19:45:00,83.2,78.6,29.93,South,171,0.0,0.0,86,0.00,,,0.14,Wunderground v.1.15,2013-08-01 23:45:00,
2013-08-01 19:50:00,82.4,78.1,29.93,South,171,0.0,0.0,87,0.00,,,0.14,Wunderground v.1.15,2013-08-01 23:50:00,
2013-08-01 20:00:00,81.2,77.6,29.94,NNE,27,0.0,0.0,89,0.00,,,0.14,Wunderground v.1.15,2013-08-02 00:00:00,
2013-08-01 20:05:00,80.8,77.6,29.94,NNE,27,0.0,0.0,90,0.00,,,0.14,Wunderground v.1.15,2013-08-02 00:05:00,
2013-08-01 20:15:00,80.0,77.1,29.94,NNE,27,0.0,0.0,91,0.00,,,0.14,Wunderground v.1.15,2013-08-02 00:15:00,
2013-08-01 20:20:00,79.8,77.6,29.94,NNE,26,0.0,0.0,93,0.00,,,0.14,Wunderground v.1.15,2013-08-02 00:20:00,
2013-08-01 20:40:00,78.9,77.0,29.94,NNE,27,0.0,0.0,94,0.00,,,0.14,Wunderground v.1.15,2013-08-02 00:40:00,
2013-08-01 20:50:00,78.7,76.8,29.94,South,170,1.0,1.0,94,0.00,,,0.14,Wunderground v.1.15,2013-08-02 00:50:00,
2013-08-01 21:00:00,78.7,76.5,29.94,South,183,2.0,2.0,93,0.00,,,0.14,Wunderground v.1.15,2013-08-02 01:00:00,
2013-08-01 21:15:00,78.4,76.2,29.94,South,173,2.0,2.0,93,0.00,,,0.14,Wunderground v.1.15,2013-08-02 01:15:00,
2013-08-01 21:20:00,78.1,75.9,29.95,South,173,2.0,2.0,93,0.00,,,0.14,Wunderground v.1.15,2013-08-02 01:20:00,
2013-08-01 21:25:00,77.9,75.7,29.95,South,169,1.0,3.0,93,0.00,,,0.14,Wunderground v.1.15,2013-08-02 01:25:00,
2013-08-01 21:35:00,77.7,75.5,29.95,SSW,193,2.0,3.0,93,0.00,,,0.14,Wunderground v.1.15,2013-08-02 01:35:00,
2013-08-01 21:40:00,77.6,75.4,29.96,SSW,193,1.0,1.0,93,0.00,,,0.14,Wunderground v.1.15,2013-08-02 01:40:00,
2013-08-01 21:50:00,77.4,75.2,29.96,SSW,193,0.0,0.0,93,0.00,,,0.14,Wunderground v.1.15,2013-08-02 01:50:00,
2013-08-01 21:55:00,77.2,75.3,29.96,SSW,194,1.0,1.0,94,0.00,,,0.14,Wunderground v.1.15,2013-08-02 01:55:00,
2013-08-01 22:10:00,76.7,74.8,29.94,South,188,1.0,1.0,94,0.00,,,0.14,Wunderground v.1.15,2013-08-02 02:10:00,
2013-08-01 22:20:00,76.5,75.0,29.94,SSE,164,2.0,2.0,95,0.00,,,0.14,Wunderground v.1.15,2013-08-02 02:20:00,
2013-08-01 22:25:00,76.4,74.9,29.94,SSE,153,2.0,2.0,95,0.00,,,0.14,Wunderground v.1.15,2013-08-02 02:25:00,
2013-08-01 22:35:00,76.4,74.9,29.95,South,178,2.0,3.0,95,0.00,,,0.14,Wunderground v.1.15,2013-08-02 02:35:00,
2013-08-01 22:40:00,76.4,74.9,29.95,South,178,1.0,1.0,95,0.00,,,0.14,Wunderground v.1.15,2013-08-02 02:40:00,
2013-08-01 22:50:00,76.3,74.8,29.97,SSE,165,2.0,4.0,95,0.00,,,0.14,Wunderground v.1.15,2013-08-02 02:50:00,
2013-08-01 23:05:00,76.2,75.0,29.98,SSE,152,2.0,2.0,96,0.00,,,0.14,Wunderground v.1.15,2013-08-02 03:05:00,
2013-08-01 23:10:00,76.1,74.9,29.97,SSE,152,2.0,2.0,96,0.00,,,0.14,Wunderground v.1.15,2013-08-02 03:10:00,
2013-08-01 23:15:00,76.1,74.9,29.97,SSE,163,2.0,2.0,96,0.00,,,0.14,Wunderground v.1.15,2013-08-02 03:15:00,
2013-08-01 23:25:00,76.1,74.9,29.98,SSW,202,1.0,2.0,96,0.00,,,0.14,Wunderground v.1.15,2013-08-02 03:25:00,
2013-08-01 23:40:00,76.0,74.8,29.97,North,360,0.0,0.0,96,0.00,,,0.14,Wunderground v.1.15,2013-08-02 03:40:00,
2013-08-01 23:55:00,75.6,74.4,29.97,SE,142,1.0,2.0,96,0.00,,,0.14,Wunderground v.1.15,2013-08-02 03:55:00,